Time;durP1;ratioP1;P1;durP2;ratioP2;P2;SDS_P1;SDS_P2;PMS_P1;PMS_P2;Temp;Humidity;BMP_temperature;BMP_pressure;BME280_temperature;BME280_humidity;BME280_pressure;Samples;Min_cycle;Max_cycle;Signal;HPM_P1;HPM_P2
2024/04/18 00:03:57;;;;;;;117.20;39.50;;;;;;;4.91;80.85;99678.82;676670;1279;139253;-81
2024/04/18 00:19:00;;;;;;;35.20;15.00;;;;;;;5.10;81.78;99681.79;676533;1279;138987;-81
2024/04/18 00:34:04;;;;;;;15.70;8.10;;;;;;;5.41;82.06;99685.34;676796;1279;138768;-81
2024/04/18 00:49:19;;;;;;;12.70;7.30;;;;;;;5.43;82.25;99674.05;676691;1279;139469;-81
2024/04/18 01:04:30;;;;;;;12.20;6.80;;;;;;;5.41;82.31;99676.02;676800;1278;139160;-81
2024/04/18 01:19:46;;;;;;;13.10;6.90;;;;;;;5.46;82.55;99681.13;676371;1279;138525;-81
2024/04/18 01:34:49;;;;;;;13.10;6.80;;;;;;;5.62;82.72;99682.36;676488;1279;139576;-80
2024/04/18 01:49:52;;;;;;;15.60;7.40;;;;;;;5.66;82.88;99687.77;676725;1279;139794;-81
2024/04/18 02:04:57;;;;;;;11.30;6.70;;;;;;;5.78;83.28;99687.89;676811;1274;139924;-81
2024/04/18 02:20:21;;;;;;;14.80;7.50;;;;;;;5.96;82.90;99690.02;676709;1279;138573;-79
2024/04/18 02:35:23;;;;;;;31.60;16.90;;;;;;;5.91;83.61;99696.50;676509;1274;139447;-80
2024/04/18 02:50:33;;;;;;;18.90;8.40;;;;;;;5.92;83.61;99694.78;676402;1277;138889;-81
2024/04/18 03:05:36;;;;;;;16.10;8.10;;;;;;;5.89;83.27;99695.88;676391;1273;139295;-80
2024/04/18 03:20:40;;;;;;;16.50;8.20;;;;;;;5.84;83.83;99698.21;676591;1274;139380;-81
2024/04/18 03:35:43;;;;;;;17.60;8.30;;;;;;;5.87;84.28;99707.48;676354;1277;139869;-80
2024/04/18 03:50:49;;;;;;;24.00;10.60;;;;;;;5.96;84.13;99717.09;676684;1277;139148;-81
2024/04/18 04:05:58;;;;;;;14.40;6.30;;;;;;;6.07;84.35;99725.42;676706;1273;139233;-80
2024/04/18 04:21:02;;;;;;;14.40;6.20;;;;;;;6.23;84.82;99734.28;676823;1277;138571;-80
2024/04/18 04:36:06;;;;;;;14.30;7.40;;;;;;;6.45;85.13;99742.96;676997;1276;138892;-80
2024/04/18 04:51:09;;;;;;;31.40;13.60;;;;;;;6.66;85.64;99749.96;676701;1277;138636;-80
2024/04/18 05:06:14;;;;;;;38.10;17.50;;;;;;;6.87;85.80;99745.86;676796;1276;139610;-81
2024/04/18 05:21:19;;;;;;;15.60;7.60;;;;;;;7.29;85.57;99750.10;676912;1276;138698;-80
2024/04/18 05:36:44;;;;;;;16.20;7.50;;;;;;;7.46;85.07;99761.77;676938;1286;139160;-80
2024/04/18 05:51:47;;;;;;;12.70;6.70;;;;;;;7.72;83.92;99769.66;676610;1278;139051;-79
2024/04/18 06:07:05;;;;;;;;;;;;;;;7.70;83.27;99783.95;676399;1285;138620;-80
2024/04/18 06:22:10;;;;;;;10.50;5.80;;;;;;;7.99;82.52;99784.66;677818;1279;125140;-81
2024/04/18 06:37:16;;;;;;;9.90;5.70;;;;;;;8.15;81.21;99785.39;678472;1288;138400;-80
2024/04/18 06:52:20;;;;;;;15.90;8.30;;;;;;;8.25;80.64;99794.30;677993;1272;137473;-79
2024/04/18 07:07:23;;;;;;;13.00;6.40;;;;;;;8.36;79.25;99810.50;676592;1278;138751;-79
2024/04/18 07:22:27;;;;;;;18.90;7.80;;;;;;;8.45;77.43;99826.45;676432;1272;138613;-80
2024/04/18 07:37:30;;;;;;;20.50;10.40;;;;;;;8.50;75.53;99835.97;676663;1272;139717;-79
2024/04/18 07:52:34;;;;;;;6.60;4.10;;;;;;;8.39;75.34;99848.33;676671;1272;140470;-79
2024/04/18 08:07:40;;;;;;;40.30;34.80;;;;;;;8.75;75.19;99855.20;676593;1276;139890;-80
2024/04/18 08:22:50;;;;;;;14.60;10.10;;;;;;;8.63;75.70;99865.52;676817;1272;140319;-78
2024/04/18 08:37:53;;;;;;;12.00;8.00;;;;;;;8.80;74.86;99874.52;676459;1273;140828;-79
2024/04/18 08:52:57;;;;;;;15.80;8.40;;;;;;;8.63;74.40;99882.22;676714;1273;139765;-79
2024/04/18 09:08:00;;;;;;;10.80;6.20;;;;;;;8.80;73.82;99885.13;676554;1272;139752;-79
2024/04/18 09:23:04;;;;;;;13.30;5.40;;;;;;;9.34;72.77;99885.86;676613;1273;139122;-78
2024/04/18 09:38:13;;;;;;;24.10;10.60;;;;;;;9.29;73.12;99888.58;676648;1272;139435;-78
2024/04/18 09:53:19;;;;;;;18.80;7.30;;;;;;;9.52;71.61;99885.96;676833;1274;139553;-79
2024/04/18 10:08:31;;;;;;;10.30;6.30;;;;;;;9.29;71.59;99892.52;676316;1277;139314;-79
2024/04/18 10:23:34;;;;;;;9.40;6.20;;;;;;;9.63;70.40;99889.20;676890;1273;139015;-78
2024/04/18 10:38:48;;;;;;;14.90;7.10;;;;;;;9.33;69.94;99895.54;676343;1277;168558;-78
2024/04/18 10:53:51;;;;;;;30.00;13.40;;;;;;;9.55;69.84;99896.70;676552;1277;140245;-78
2024/04/18 11:08:55;;;;;;;19.80;10.50;;;;;;;9.63;68.40;99898.08;676325;1273;139347;-79
2024/04/18 11:23:58;;;;;;;22.40;9.30;;;;;;;10.00;68.20;99910.05;676540;1272;140199;-79
2024/04/18 11:39:02;;;;;;;11.90;4.50;;;;;;;10.30;67.31;99915.94;676690;1277;138740;-78
2024/04/18 11:54:06;;;;;;;47.30;20.90;;;;;;;10.66;66.41;99917.88;676898;1276;139274;-78
2024/04/18 12:09:19;;;;;;;15.30;8.30;;;;;;;10.64;65.97;99915.20;676420;1276;140575;-80
2024/04/18 12:24:23;;;;;;;18.50;8.70;;;;;;;10.90;65.52;99905.30;676885;1276;139033;-78
2024/04/18 12:39:47;;;;;;;14.40;7.70;;;;;;;11.60;63.92;99893.34;676906;1276;139615;-79
2024/04/18 12:55:00;;;;;;;11.40;5.50;;;;;;;12.25;62.56;99893.73;676510;1277;139628;-79
2024/04/18 13:10:06;;;;;;;22.90;8.90;;;;;;;12.90;61.34;99892.51;676696;1273;139475;-79
2024/04/18 13:25:17;;;;;;;18.00;7.20;;;;;;;13.25;59.26;99897.52;676869;1273;139411;-79
2024/04/18 13:40:20;;;;;;;8.60;4.10;;;;;;;13.37;58.23;99893.64;676281;1275;139450;-80
2024/04/18 13:55:30;;;;;;;39.70;22.50;;;;;;;13.31;57.64;99896.16;676405;1278;138427;-79
2024/04/18 14:10:33;;;;;;;9.50;5.40;;;;;;;13.45;57.50;99898.38;676498;1278;138460;-79
2024/04/18 14:25:55;;;;;;;27.60;10.60;;;;;;;12.97;56.46;99895.14;676269;1278;140396;-77
2024/04/18 14:41:04;;;;;;;17.50;8.10;;;;;;;12.16;56.44;99897.75;676231;1278;138739;-78
2024/04/18 14:56:15;;;;;;;61.90;23.00;;;;;;;11.38;57.23;99909.90;676103;1278;141160;-79
2024/04/18 15:11:34;;;;;;;18.40;9.50;;;;;;;10.89;58.15;99915.52;676399;1277;138992;-79
2024/04/18 15:26:37;;;;;;;23.90;10.70;;;;;;;10.49;58.49;99923.32;676215;1278;138191;-79
2024/04/18 15:41:40;;;;;;;15.60;8.40;;;;;;;10.86;59.11;99925.95;676891;1279;137222;-79
2024/04/18 15:56:47;;;;;;;17.00;7.70;;;;;;;10.52;59.44;99932.80;677743;1278;138900;-80
2024/04/18 16:12:08;;;;;;;36.50;16.70;;;;;;;10.11;60.38;99943.37;676675;1278;140215;-78
2024/04/18 16:27:33;;;;;;;38.70;21.60;;;;;;;10.52;61.41;99950.82;675767;1279;139378;-79
2024/04/18 16:42:36;;;;;;;11.80;6.30;;;;;;;10.47;61.10;99962.14;676032;1279;139562;-79
2024/04/18 16:57:40;;;;;;;36.30;19.30;;;;;;;9.49;62.01;99978.19;675798;1283;138185;-78
2024/04/18 17:12:56;;;;;;;19.10;8.80;;;;;;;8.94;62.41;99986.25;675765;1279;138439;-77
2024/04/18 17:28:22;;;;;;;44.00;16.10;;;;;;;8.40;62.99;99997.80;675747;1279;138586;-78
2024/04/18 17:43:38;;;;;;;67.90;25.10;;;;;;;8.15;63.79;100010.31;675191;1284;139153;-79
2024/04/18 17:58:41;;;;;;;66.60;25.20;;;;;;;7.91;64.53;100010.48;675378;1278;139171;-79
2024/04/18 18:13:44;;;;;;;99.70;37.50;;;;;;;7.57;65.33;100016.33;675434;1289;138866;-78
2024/04/18 18:28:48;;;;;;;90.20;34.00;;;;;;;7.17;65.92;100019.67;675760;1281;140512;-80
2024/04/18 18:43:51;;;;;;;195.20;59.80;;;;;;;6.70;66.76;100012.98;676006;1275;140878;-79
2024/04/18 18:58:54;;;;;;;124.30;50.00;;;;;;;6.09;66.97;100004.98;676039;1278;139768;-79
2024/04/18 19:13:58;;;;;;;470.80;185.30;;;;;;;5.33;67.63;100002.25;675748;1275;140918;-79
2024/04/18 19:29:01;;;;;;;467.80;137.80;;;;;;;4.69;68.20;99995.02;676063;1275;139303;-79
2024/04/18 19:44:04;;;;;;;202.60;71.80;;;;;;;4.25;69.15;99986.90;675724;1276;139156;-79
2024/04/18 19:59:08;;;;;;;413.70;141.80;;;;;;;4.00;70.10;99978.15;675582;1276;139575;-79
2024/04/18 20:14:11;;;;;;;130.00;44.80;;;;;;;3.59;70.45;99974.34;675909;1279;139463;-79
2024/04/18 20:29:16;;;;;;;98.30;37.60;;;;;;;3.37;71.07;99973.52;675635;1276;139883;-79
2024/04/18 20:44:19;;;;;;;54.60;22.10;;;;;;;3.12;71.51;99969.51;675734;1283;140128;-79
2024/04/18 20:59:22;;;;;;;225.70;64.40;;;;;;;2.85;72.00;99963.91;675676;1277;140239;-79
2024/04/18 21:14:25;;;;;;;37.60;15.60;;;;;;;2.73;72.69;99961.14;675417;1278;141229;-78
2024/04/18 21:43:53;;;;;;;154.10;44.00;;;;;;;2.71;74.00;99950.06;657804;1303;545251;-79
2024/04/18 21:59:01;;;;;;;32.40;15.70;;;;;;;2.37;74.09;99939.34;673421;1276;141054;-79
2024/04/18 22:14:14;;;;;;;53.20;20.20;;;;;;;2.28;74.66;99932.58;673014;1266;141364;-78
2024/04/18 22:29:19;;;;;;;33.30;13.50;;;;;;;2.27;74.90;99923.17;673698;1268;138959;-79
2024/04/18 22:44:23;;;;;;;32.30;12.70;;;;;;;2.18;75.21;99916.09;672390;1269;138864;-79
2024/04/18 22:59:26;;;;;;;26.50;11.70;;;;;;;2.01;75.63;99904.81;672509;1268;138454;-78
2024/04/18 23:14:29;;;;;;;30.90;12.50;;;;;;;1.95;75.76;99885.33;669261;1269;139228;-78
2024/04/18 23:29:32;;;;;;;124.20;35.10;;;;;;;1.80;75.70;99876.75;671571;1282;138785;-79
2024/04/18 23:44:36;;;;;;;25.40;11.60;;;;;;;1.84;76.32;99859.96;667090;1270;139238;-79
2024/04/18 23:59:39;;;;;;;24.70;10.00;;;;;;;1.68;76.20;99845.69;672063;1269;140437;-79
